sim
Sign-in with your pilot id or email,
or register
Callsign
Passwort

Schedule Details

Flight Number: DLH2318
Departure: Munich Airport (EDDM) at 10:25
Arrival: Luxembourg Findel Airport (ELLX) at 11:30
Route: Lufthansa Passenger Schedule. Enter filed route here before submitting Pirep.

Weather Information
Getting current METAR information for EDDM 230750Z 21005KT 180V250 9999 BKN011 BKN035 16/15 Q1010 TEMPO SHRA
Getting current METAR information for ELLX 230750Z 23007KT 190V260 9999 BKN012 15/12 Q1009 BECMG SCT015

Schedule Frequency

Route Map